createdAt,value
2018-01-27T00:00:35.198Z,100777.91
2018-01-27T00:03:02.200Z,100783.23
2018-01-27T00:05:28.495Z,100781.23
2018-01-27T00:07:54.761Z,100785.45
2018-01-27T00:10:21.107Z,100789.52
2018-01-27T00:12:47.468Z,100793.09
2018-01-27T00:15:14.517Z,100790.45
2018-01-27T00:17:48.524Z,100793.66
2018-01-27T00:20:15.600Z,100793.44
2018-01-27T00:22:51.440Z,100795.72
2018-01-27T00:25:18.399Z,100803.55
2018-01-27T00:27:44.780Z,100806.31
2018-01-27T00:30:11.052Z,100808.66
2018-01-27T00:32:37.391Z,100810.90
2018-01-27T00:35:03.732Z,100816.13
2018-01-27T00:37:29.948Z,100821.66
2018-01-27T00:39:56.190Z,100819.09
2018-01-27T00:42:29.310Z,100822.26
2018-01-27T00:44:55.538Z,100814.34
2018-01-27T00:47:21.789Z,100820.21
2018-01-27T00:49:48.007Z,100824.05
2018-01-27T00:52:14.345Z,100821.73
2018-01-27T00:54:40.591Z,100818.36
2018-01-27T00:57:07.863Z,100833.24
2018-01-27T00:59:34.161Z,100833.16
2018-01-27T01:02:00.452Z,100827.13
2018-01-27T01:04:26.675Z,100828.05
2018-01-27T01:06:52.988Z,100829.73
2018-01-27T01:09:19.223Z,100824.91
2018-01-27T01:11:45.454Z,100830.08
2018-01-27T01:14:11.678Z,100833.01
2018-01-27T01:16:37.931Z,100833.55
2018-01-27T01:19:04.176Z,100830.19
2018-01-27T01:21:30.488Z,100831.96
2018-01-27T01:23:56.719Z,100830.29
2018-01-27T01:26:22.963Z,100840.17
2018-01-27T01:28:49.310Z,100838.16
2018-01-27T01:31:15.542Z,100838.89
2018-01-27T01:33:42.537Z,100839.08
2018-01-27T01:36:08.757Z,100835.23
2018-01-27T01:38:35.146Z,100836.86
2018-01-27T01:41:01.380Z,100835.89
2018-01-27T01:43:33.779Z,100839.35
2018-01-27T01:46:00.740Z,100837.30
2018-01-27T01:48:27.026Z,100836.95
2018-01-27T01:50:53.280Z,100840.92
2018-01-27T01:53:20.326Z,100834.55
2018-01-27T01:55:47.314Z,100833.39
2018-01-27T01:58:13.521Z,100837.14
2018-01-27T02:00:39.814Z,100833.12
2018-01-27T02:03:06.064Z,100834.80
2018-01-27T02:05:33.015Z,100827.34
2018-01-27T02:07:59.950Z,100827.92
2018-01-27T02:10:26.935Z,100825.40
2018-01-27T02:12:53.166Z,100839.52
2018-01-27T02:15:19.398Z,100829.72
2018-01-27T02:17:45.619Z,100826.17
2018-01-27T02:20:11.868Z,100832.06
2018-01-27T02:22:39.107Z,100829.31
2018-01-27T02:25:05.335Z,100842.94
2018-01-27T02:27:31.591Z,100846.79
2018-01-27T02:29:57.819Z,100845.30
2018-01-27T02:32:24.063Z,100851.75
2018-01-27T02:34:50.309Z,100852.27
2018-01-27T02:37:17.295Z,100861.46
2018-01-27T02:39:43.524Z,100863.52
2018-01-27T02:42:09.827Z,100861.13
2018-01-27T02:44:36.868Z,100858.55
2018-01-27T02:47:03.830Z,100862.84
2018-01-27T02:49:30.080Z,100860.78
2018-01-27T02:51:56.278Z,100862.45
2018-01-27T02:54:23.240Z,100868.80
2018-01-27T02:56:49.472Z,100878.64
2018-01-27T02:59:15.738Z,100880.61
2018-01-27T03:01:41.962Z,100888.13
2018-01-27T03:04:08.198Z,100891.64
2018-01-27T03:06:34.412Z,100896.77
2018-01-27T03:09:00.704Z,100898.55
2018-01-27T03:11:27.655Z,100908.08
2018-01-27T03:13:53.914Z,100907.20
2018-01-27T03:16:20.120Z,100905.53
2018-01-27T03:18:46.362Z,100901.87
2018-01-27T03:21:12.580Z,100909.66
2018-01-27T03:23:38.809Z,100906.09
2018-01-27T03:26:05.037Z,100912.17
2018-01-27T03:28:31.261Z,100907.63
2018-01-27T03:30:57.495Z,100902.42
2018-01-27T03:33:23.732Z,100911.67
2018-01-27T03:35:49.988Z,100914.17
2018-01-27T03:38:16.217Z,100913.98
2018-01-27T03:40:42.464Z,100915.35
2018-01-27T03:43:08.714Z,100923.05
2018-01-27T03:45:35.707Z,100921.65
2018-01-27T03:48:01.935Z,100921.75
2018-01-27T03:50:28.163Z,100927.69
2018-01-27T03:52:54.403Z,100932.91
2018-01-27T03:55:20.685Z,100934.52
2018-01-27T03:57:47.629Z,100936.11
2018-01-27T04:00:14.763Z,100935.10
2018-01-27T04:02:40.982Z,100942.37
2018-01-27T04:05:07.252Z,100953.63
2018-01-27T04:07:33.465Z,100950.92
2018-01-27T04:10:00.478Z,100952.98
2018-01-27T04:12:26.702Z,100950.41
2018-01-27T04:14:52.986Z,100946.75
2018-01-27T04:17:19.220Z,100951.75
2018-01-27T04:19:45.438Z,100945.58
2018-01-27T04:22:11.672Z,100939.64
2018-01-27T04:24:37.926Z,100941.92
2018-01-27T04:27:04.178Z,100950.73
2018-01-27T04:29:30.402Z,100954.88
2018-01-27T04:31:56.672Z,100959.84
2018-01-27T04:34:23.652Z,100966.53
2018-01-27T04:36:49.945Z,100962.19
2018-01-27T04:39:16.935Z,100969.05
2018-01-27T04:41:43.225Z,100970.68
2018-01-27T04:44:10.247Z,100975.73
2018-01-27T04:46:36.479Z,100981.17
2018-01-27T04:49:02.731Z,100982.52
2018-01-27T04:51:29.695Z,100985.87
2018-01-27T04:53:55.951Z,100986.86
2018-01-27T04:56:23.087Z,100993.81
2018-01-27T04:58:49.333Z,101000.09
2018-01-27T05:01:15.572Z,101003.88
2018-01-27T05:03:41.868Z,101002.20
2018-01-27T05:06:09.059Z,101009.70
2018-01-27T05:08:35.324Z,101011.95
2018-01-27T05:11:02.334Z,101009.95
2018-01-27T05:13:28.598Z,101008.42
2018-01-27T05:15:55.625Z,101016.19
2018-01-27T05:18:21.877Z,101021.61
2018-01-27T05:20:48.939Z,101018.47
2018-01-27T05:23:15.911Z,101026.02
2018-01-27T05:25:42.139Z,101020.86
2018-01-27T05:28:08.369Z,101028.83
2018-01-27T05:30:34.623Z,101022.07
2018-01-27T05:33:00.891Z,101028.89
2018-01-27T05:35:27.919Z,101033.20
2018-01-27T05:37:54.148Z,101041.20
2018-01-27T05:40:20.399Z,101037.74
2018-01-27T05:42:47.372Z,101045.52
2018-01-27T05:45:13.599Z,101055.58
2018-01-27T05:47:39.807Z,101048.33
2018-01-27T05:50:06.836Z,101059.23
2018-01-27T05:52:33.854Z,101062.62
2018-01-27T05:55:00.124Z,101072.19
2018-01-27T05:57:27.080Z,101074.53
2018-01-27T05:59:54.044Z,101075.39
2018-01-27T06:02:20.326Z,101080.69
2018-01-27T06:04:46.571Z,101082.68
2018-01-27T06:07:13.548Z,101084.52
2018-01-27T06:09:39.808Z,101093.30
2018-01-27T06:12:06.092Z,101098.67
2018-01-27T06:14:33.241Z,101101.50
2018-01-27T06:17:00.294Z,101104.22
2018-01-27T06:19:26.551Z,101103.59
2018-01-27T06:21:52.819Z,101106.94
2018-01-27T06:24:19.159Z,101111.73
2018-01-27T06:26:46.197Z,101107.91
2018-01-27T06:29:12.435Z,101105.26
2018-01-27T06:31:38.744Z,101110.28
2018-01-27T06:34:04.978Z,101115.38
2018-01-27T06:36:31.187Z,101120.38
2018-01-27T06:38:57.416Z,101123.17
2018-01-27T06:41:23.699Z,101124.00
2018-01-27T06:43:50.701Z,101127.25
2018-01-27T06:46:16.923Z,101135.88
2018-01-27T06:48:43.136Z,101137.49
2018-01-27T06:51:09.360Z,101139.97
2018-01-27T06:53:35.584Z,101145.81
2018-01-27T06:56:01.808Z,101158.61
2018-01-27T06:58:28.043Z,101161.58
2018-01-27T07:00:54.248Z,101166.72
2018-01-27T07:03:21.247Z,101161.48
2018-01-27T07:05:48.464Z,101171.81
2018-01-27T07:08:14.713Z,101172.06
2018-01-27T07:10:40.962Z,101177.92
2018-01-27T07:13:07.870Z,101174.02
2018-01-27T07:15:34.115Z,101185.75
2018-01-27T07:18:00.347Z,101184.41
2018-01-27T07:20:26.584Z,101187.56
2018-01-27T07:22:52.825Z,101189.05
2018-01-27T07:25:19.079Z,101194.77
2018-01-27T07:27:45.297Z,101194.08
2018-01-27T07:30:11.543Z,101202.15
2018-01-27T07:32:38.508Z,101207.13
2018-01-27T07:35:04.755Z,101211.88
2018-01-27T07:37:31.031Z,101213.22
2018-01-27T07:39:57.411Z,101217.42
2018-01-27T07:42:23.635Z,101214.94
2018-01-27T07:44:49.864Z,101214.72
2018-01-27T07:47:16.074Z,101213.55
2018-01-27T07:49:43.032Z,101219.20
2018-01-27T07:52:09.271Z,101212.53
2018-01-27T07:54:35.504Z,101221.11
2018-01-27T07:57:01.763Z,101226.53
2018-01-27T07:59:27.975Z,101227.25
2018-01-27T08:01:54.234Z,101234.16
2018-01-27T08:04:21.215Z,101233.44
2018-01-27T08:06:48.186Z,101230.52
2018-01-27T08:09:14.405Z,101244.02
2018-01-27T08:11:40.612Z,101256.19
2018-01-27T08:14:07.590Z,101257.80
2018-01-27T08:16:34.678Z,101255.86
2018-01-27T08:19:01.245Z,101252.05
2018-01-27T08:21:28.208Z,101252.28
2018-01-27T08:23:54.435Z,101253.39
2018-01-27T08:26:20.699Z,101254.66
2018-01-27T08:28:46.949Z,101252.86
2018-01-27T08:31:13.195Z,101254.23
2018-01-27T08:33:39.415Z,101252.86
2018-01-27T08:36:05.669Z,101259.58
2018-01-27T08:38:33.521Z,101261.66
2018-01-27T08:40:59.751Z,101259.87
2018-01-27T08:43:26.768Z,101269.12
2018-01-27T08:45:53.032Z,101265.03
2018-01-27T08:48:20.032Z,101266.83
2018-01-27T08:50:46.254Z,101273.94
2018-01-27T08:53:12.510Z,101268.83
2018-01-27T08:55:38.756Z,101273.59
2018-01-27T08:58:04.992Z,101276.81
2018-01-27T09:00:32.028Z,101280.45
2018-01-27T09:02:58.294Z,101283.28
2018-01-27T09:05:24.568Z,101287.06
2018-01-27T09:07:51.411Z,101284.68
2018-01-27T09:10:17.661Z,101284.94
2018-01-27T09:12:43.898Z,101289.53
2018-01-27T09:15:10.155Z,101294.62
2018-01-27T09:17:36.386Z,101301.86
2018-01-27T09:20:02.623Z,101304.80
2018-01-27T09:22:28.838Z,101296.56
2018-01-27T09:24:55.806Z,101298.98
2018-01-27T09:27:22.090Z,101299.48
2018-01-27T09:29:48.345Z,101303.09
2018-01-27T09:32:14.573Z,101311.59
2018-01-27T09:34:40.828Z,101317.55
2018-01-27T09:37:07.079Z,101320.94
2018-01-27T09:39:33.331Z,101321.97
2018-01-27T09:41:59.692Z,101329.50
2018-01-27T09:44:25.925Z,101326.61
2018-01-27T09:46:52.167Z,101319.86
2018-01-27T09:49:18.396Z,101319.38
2018-01-27T09:51:44.628Z,101326.70
2018-01-27T09:54:11.820Z,101326.04
2018-01-27T09:56:38.075Z,101329.34
2018-01-27T09:59:05.080Z,101332.06
2018-01-27T10:01:31.316Z,101330.10
2018-01-27T10:03:57.578Z,101323.00
2018-01-27T10:06:24.560Z,101327.17
2018-01-27T10:08:50.803Z,101329.86
2018-01-27T10:11:17.018Z,101333.85
2018-01-27T10:13:43.280Z,101328.69
2018-01-27T10:16:09.511Z,101331.31
2018-01-27T10:18:35.762Z,101338.77
2018-01-27T10:21:02.739Z,101332.89
2018-01-27T10:23:28.980Z,101341.78
2018-01-27T10:25:55.207Z,101338.30
2018-01-27T10:28:21.473Z,101339.69
2018-01-27T10:30:47.772Z,101324.63
2018-01-27T10:33:14.103Z,101329.38
2018-01-27T10:35:40.383Z,101334.84
2018-01-27T10:38:07.397Z,101336.66
2018-01-27T10:43:00.604Z,101326.67
2018-01-27T10:45:27.628Z,101327.36
2018-01-27T10:47:54.432Z,101333.61
2018-01-27T10:50:20.696Z,101335.98
2018-01-27T10:52:47.056Z,101339.77
2018-01-27T10:55:13.334Z,101338.87
2018-01-27T10:57:39.596Z,101340.61
2018-01-27T11:00:05.954Z,101343.59
2018-01-27T11:02:32.191Z,101349.23
2018-01-27T11:05:02.869Z,101349.70
2018-01-27T11:07:29.170Z,101352.76
2018-01-27T11:09:56.550Z,101354.77
2018-01-27T11:12:23.740Z,101353.34
2018-01-27T11:14:50.116Z,101358.23
2018-01-27T11:17:16.335Z,101355.36
2018-01-27T11:19:43.399Z,101353.77
2018-01-27T11:22:11.781Z,101358.50
2018-01-27T11:24:38.111Z,101360.88
2018-01-27T11:27:05.130Z,101359.88
2018-01-27T11:29:32.223Z,101364.48
2018-01-27T11:31:58.459Z,101354.43
2018-01-27T11:34:24.757Z,101362.93
2018-01-27T11:36:50.983Z,101368.92
2018-01-27T11:39:17.995Z,101375.30
2018-01-27T11:41:44.195Z,101373.11
2018-01-27T11:44:10.464Z,101364.17
2018-01-27T11:46:37.436Z,101368.49
2018-01-27T11:49:03.708Z,101370.38
2018-01-27T11:51:29.988Z,101369.57
2018-01-27T11:53:56.338Z,101383.19
2018-01-27T11:56:22.608Z,101377.56
2018-01-27T11:58:48.888Z,101371.94
2018-01-27T12:01:15.137Z,101374.45
2018-01-27T12:03:41.428Z,101367.75
2018-01-27T12:06:08.486Z,101368.42
2018-01-27T12:08:34.736Z,101376.20
2018-01-27T12:11:01.029Z,101370.83
2018-01-27T12:13:27.274Z,101370.85
2018-01-27T12:15:55.673Z,101368.33
2018-01-27T12:18:21.951Z,101378.27
2018-01-27T12:20:48.220Z,101374.38
2018-01-27T12:23:15.251Z,101368.01
2018-01-27T12:25:46.258Z,101370.92
2018-01-27T12:28:12.550Z,101362.09
2018-01-27T12:30:38.860Z,101367.70
2018-01-27T12:33:05.902Z,101369.81
2018-01-27T12:35:32.966Z,101363.80
2018-01-27T12:37:59.258Z,101372.77
2018-01-27T12:40:25.525Z,101373.15
2018-01-27T12:42:51.823Z,101369.55
2018-01-27T12:45:18.108Z,101370.95
2018-01-27T12:47:44.515Z,101358.08
2018-01-27T12:50:10.907Z,101368.66
2018-01-27T12:52:37.221Z,101366.65
2018-01-27T12:55:03.504Z,101365.03
2018-01-27T12:57:30.513Z,101364.92
2018-01-27T12:59:56.803Z,101365.98
2018-01-27T13:02:23.127Z,101355.08
2018-01-27T13:04:49.488Z,101367.40
2018-01-27T13:07:15.791Z,101361.69
2018-01-27T13:09:42.153Z,101359.48
2018-01-27T13:12:09.290Z,101359.65
2018-01-27T13:14:35.574Z,101357.97
2018-01-27T13:17:01.871Z,101353.66
2018-01-27T13:19:28.120Z,101362.05
2018-01-27T13:21:54.387Z,101351.87
2018-01-27T13:24:20.695Z,101351.49
2018-01-27T13:26:47.031Z,101361.19
2018-01-27T13:29:14.120Z,101350.12
2018-01-27T13:31:40.352Z,101348.45
2018-01-27T13:34:06.642Z,101353.41
2018-01-27T13:36:33.742Z,101355.88
2018-01-27T13:39:00.029Z,101352.43
2018-01-27T13:41:27.162Z,101359.47
2018-01-27T13:43:53.436Z,101356.89
2018-01-27T13:46:19.736Z,101349.70
2018-01-27T13:48:46.768Z,101342.45
2018-01-27T13:51:13.049Z,101340.76
2018-01-27T13:53:39.308Z,101348.14
2018-01-27T13:56:05.782Z,101348.97
2018-01-27T13:58:32.839Z,101351.94
2018-01-27T14:00:59.219Z,101355.20
2018-01-27T14:03:25.518Z,101342.45
2018-01-27T14:05:52.115Z,101344.55
2018-01-27T14:08:22.176Z,101351.20
2018-01-27T14:10:48.471Z,101346.28
2018-01-27T14:13:15.502Z,101343.61
2018-01-27T14:15:41.844Z,101338.53
2018-01-27T14:18:08.144Z,101329.00
2018-01-27T14:20:34.660Z,101342.61
2018-01-27T14:23:00.932Z,101343.34
2018-01-27T14:25:27.192Z,101345.89
2018-01-27T14:27:53.486Z,101348.78
2018-01-27T14:30:19.989Z,101353.12
2018-01-27T14:32:46.404Z,101354.70
2018-01-27T14:35:13.008Z,101364.17
2018-01-27T14:37:39.528Z,101367.33
2018-01-27T14:40:05.802Z,101364.35
2018-01-27T14:42:32.144Z,101365.58
2018-01-27T14:44:58.469Z,101357.55
2018-01-27T14:47:24.730Z,101376.46
2018-01-27T14:49:50.995Z,101382.28
2018-01-27T14:52:17.329Z,101384.60
2018-01-27T14:54:44.396Z,101378.47
2018-01-27T14:57:11.424Z,101392.92
2018-01-27T14:59:38.473Z,101390.59
2018-01-27T15:02:05.614Z,101391.41
2018-01-27T15:04:31.924Z,101393.62
2018-01-27T15:06:58.211Z,101388.05
2018-01-27T15:09:24.539Z,101376.33
2018-01-27T15:11:50.858Z,101373.41
2018-01-27T15:14:17.887Z,101370.16
2018-01-27T15:16:44.230Z,101365.61
2018-01-27T15:19:11.256Z,101372.44
2018-01-27T15:21:37.516Z,101371.15
2018-01-27T15:24:04.552Z,101365.86
2018-01-27T15:26:31.580Z,101364.97
2018-01-27T15:28:57.862Z,101380.18
2018-01-27T15:31:24.228Z,101373.59
2018-01-27T15:33:50.521Z,101377.02
2018-01-27T15:36:16.854Z,101379.06
2018-01-27T15:38:43.223Z,101370.73
2018-01-27T15:41:09.486Z,101374.48
2018-01-27T15:43:36.633Z,101371.08
2018-01-27T15:46:03.216Z,101379.62
2018-01-27T15:48:29.529Z,101380.86
2018-01-27T15:50:55.939Z,101380.29
2018-01-27T15:53:22.977Z,101373.23
2018-01-27T15:55:49.314Z,101376.30
2018-01-27T15:58:16.375Z,101382.83
2018-01-27T16:00:42.830Z,101382.00
2018-01-27T16:03:09.126Z,101385.81
2018-01-27T16:05:37.200Z,101387.84
2018-01-27T16:08:04.238Z,101392.58
2018-01-27T16:10:30.538Z,101393.69
2018-01-27T16:12:56.866Z,101393.02
2018-01-27T16:15:23.136Z,101389.60
2018-01-27T16:17:50.189Z,101387.16
2018-01-27T16:20:17.333Z,101389.37
2018-01-27T16:22:45.101Z,101389.60
2018-01-27T16:25:12.130Z,101398.17
2018-01-27T16:27:38.477Z,101398.94
2018-01-27T16:30:05.590Z,101403.59
2018-01-27T16:32:31.880Z,101411.69
2018-01-27T16:34:58.784Z,101413.86
2018-01-27T16:37:25.058Z,101411.70
2018-01-27T16:39:51.366Z,101420.13
2018-01-27T16:42:18.466Z,101421.58
2018-01-27T16:44:44.768Z,101426.72
2018-01-27T16:47:11.069Z,101435.09
2018-01-27T16:49:37.369Z,101448.84
2018-01-27T16:52:03.730Z,101452.64
2018-01-27T16:54:30.034Z,101447.09
2018-01-27T16:56:57.053Z,101452.69
2018-01-27T16:59:23.310Z,101439.16
2018-01-27T17:01:49.569Z,101434.22
2018-01-27T17:04:16.589Z,101433.09
2018-01-27T17:06:42.867Z,101434.67
2018-01-27T17:09:09.933Z,101439.63
2018-01-27T17:11:36.247Z,101433.23
2018-01-27T17:14:03.319Z,101432.52
2018-01-27T17:16:29.711Z,101426.69
2018-01-27T17:18:56.756Z,101430.10
2018-01-27T17:21:23.051Z,101435.10
2018-01-27T17:23:49.442Z,101439.53
2018-01-27T17:26:15.854Z,101436.61
2018-01-27T17:28:42.117Z,101442.48
2018-01-27T17:31:08.541Z,101429.42
2018-01-27T17:33:35.587Z,101439.16
2018-01-27T17:36:02.685Z,101428.84
2018-01-27T17:38:28.985Z,101434.16
2018-01-27T17:40:55.295Z,101432.64
2018-01-27T17:43:21.637Z,101439.86
2018-01-27T17:45:47.899Z,101435.72
2018-01-27T17:48:14.186Z,101437.84
2018-01-27T17:50:40.534Z,101434.67
2018-01-27T17:53:06.791Z,101435.44
2018-01-27T17:55:34.063Z,101421.64
2018-01-27T17:58:00.480Z,101433.51
2018-01-27T18:00:26.876Z,101434.88
2018-01-27T18:02:53.191Z,101438.59
2018-01-27T18:05:19.449Z,101425.05
2018-01-27T18:07:45.819Z,101428.02
2018-01-27T18:10:12.070Z,101415.16
2018-01-27T18:12:39.159Z,101400.02
2018-01-27T18:15:05.406Z,101399.31
2018-01-27T18:17:31.665Z,101397.47
2018-01-27T18:19:58.080Z,101395.02
2018-01-27T18:22:24.383Z,101383.03
2018-01-27T18:24:50.691Z,101391.23
2018-01-27T18:27:16.938Z,101387.70
2018-01-27T18:29:43.188Z,101381.69
2018-01-27T18:32:10.237Z,101373.77
2018-01-27T18:34:36.544Z,101374.30
2018-01-27T18:37:02.817Z,101380.00
2018-01-27T18:39:29.103Z,101376.11
2018-01-27T18:41:55.477Z,101380.72
2018-01-27T18:44:21.830Z,101382.19
2018-01-27T18:46:48.151Z,101377.03
2018-01-27T18:49:15.187Z,101371.87
2018-01-27T18:51:41.493Z,101368.08
2018-01-27T18:54:07.785Z,101374.35
2018-01-27T18:56:34.792Z,101371.43
2018-01-27T18:59:02.144Z,101366.16
2018-01-27T19:01:29.465Z,101366.80
2018-01-27T19:03:55.799Z,101364.58
2018-01-27T19:06:22.133Z,101359.53
2018-01-27T19:08:48.474Z,101352.27
2018-01-27T19:11:14.765Z,101352.00
2018-01-27T19:13:43.132Z,101341.08
2018-01-27T19:16:09.452Z,101337.80
2018-01-27T19:18:35.748Z,101340.94
2018-01-27T19:21:02.010Z,101337.14
2018-01-27T19:23:28.330Z,101337.26
2018-01-27T19:25:54.570Z,101331.85
2018-01-27T19:28:20.872Z,101335.85
2018-01-27T19:30:47.190Z,101339.11
2018-01-27T19:33:13.471Z,101333.25
2018-01-27T19:35:39.797Z,101333.10
2018-01-27T19:38:06.126Z,101336.69
2018-01-27T19:40:34.444Z,101339.76
2018-01-27T19:43:00.742Z,101333.23
2018-01-27T19:45:27.042Z,101329.45
2018-01-27T19:47:53.305Z,101331.13
2018-01-27T19:50:20.304Z,101318.88
2018-01-27T19:52:46.628Z,101312.81
2018-01-27T19:55:12.920Z,101309.44
2018-01-27T19:57:39.980Z,101329.82
2018-01-27T20:00:06.990Z,101336.27
2018-01-27T20:02:33.448Z,101347.45
2018-01-27T20:05:00.707Z,101357.62
2018-01-27T20:07:27.742Z,101364.52
2018-01-27T20:09:54.024Z,101373.93
2018-01-27T20:12:20.532Z,101371.92
2018-01-27T20:14:46.868Z,101357.86
2018-01-27T20:17:13.918Z,101348.41
2018-01-27T20:19:40.197Z,101351.42
2018-01-27T20:22:06.481Z,101364.55
2018-01-27T20:24:32.857Z,101372.41
2018-01-27T20:26:59.407Z,101372.06
2018-01-27T20:29:25.736Z,101367.33
2018-01-27T20:31:52.079Z,101381.44
2018-01-27T20:34:18.362Z,101368.82
2018-01-27T20:36:44.981Z,101352.83
2018-01-27T20:39:11.258Z,101349.33
2018-01-27T20:41:37.688Z,101345.87
2018-01-27T20:44:04.018Z,101351.93
2018-01-27T20:46:30.352Z,101353.95
2018-01-27T20:48:58.704Z,101361.07
2018-01-27T20:51:25.114Z,101339.28
2018-01-27T20:53:51.367Z,101338.98
2018-01-27T20:56:17.622Z,101329.83
2018-01-27T20:58:43.907Z,101328.55
2018-01-27T21:01:10.190Z,101301.05
2018-01-27T21:03:36.446Z,101284.56
2018-01-27T21:06:03.619Z,101276.47
2018-01-27T21:08:29.934Z,101265.16
2018-01-27T21:10:56.923Z,101266.30
2018-01-27T21:13:23.220Z,101269.38
2018-01-27T21:15:50.219Z,101273.45
2018-01-27T21:18:16.505Z,101290.09
2018-01-27T21:20:42.756Z,101292.47
2018-01-27T21:23:09.037Z,101296.86
2018-01-27T21:25:35.303Z,101303.59
2018-01-27T21:28:01.627Z,101298.89
2018-01-27T21:30:27.951Z,101289.95
2018-01-27T21:32:54.976Z,101291.14
2018-01-27T21:35:22.010Z,101288.98
2018-01-27T21:37:48.339Z,101285.97
2018-01-27T21:40:14.629Z,101278.73
2018-01-27T21:42:41.012Z,101263.30
2018-01-27T21:45:07.266Z,101254.88
2018-01-27T21:47:33.550Z,101260.84
2018-01-27T21:49:59.980Z,101259.34
2018-01-27T21:52:26.282Z,101256.45
2018-01-27T21:54:52.595Z,101248.54
2018-01-27T21:57:18.949Z,101242.19
2018-01-27T21:59:45.242Z,101239.16
2018-01-27T22:02:12.804Z,101245.66
2018-01-27T22:04:39.861Z,101247.03
2018-01-27T22:07:06.843Z,101261.75
2018-01-27T22:09:33.130Z,101269.14
2018-01-27T22:11:59.479Z,101275.97
2018-01-27T22:14:25.853Z,101265.41
2018-01-27T22:16:52.160Z,101263.29
2018-01-27T22:19:18.449Z,101259.02
2018-01-27T22:21:45.500Z,101269.66
2018-01-27T22:24:12.532Z,101269.56
2018-01-27T22:26:38.835Z,101259.30
2018-01-27T22:29:05.135Z,101251.85
2018-01-27T22:31:31.429Z,101251.53
2018-01-27T22:33:57.687Z,101252.66
2018-01-27T22:36:24.042Z,101245.03
2018-01-27T22:38:50.288Z,101250.72
2018-01-27T22:41:16.658Z,101236.84
2018-01-27T22:43:43.729Z,101219.58
2018-01-27T22:46:10.066Z,101214.93
2018-01-27T22:48:36.367Z,101202.91
2018-01-27T22:51:03.382Z,101174.44
2018-01-27T22:53:29.657Z,101180.02
2018-01-27T22:55:56.680Z,101178.34
2018-01-27T22:58:22.933Z,101171.58
2018-01-27T23:00:56.080Z,101175.41
2018-01-27T23:03:22.334Z,101178.55
2018-01-27T23:05:48.604Z,101177.25
2018-01-27T23:08:14.960Z,101172.09
2018-01-27T23:10:41.334Z,101165.72
2018-01-27T23:13:08.380Z,101168.89
2018-01-27T23:15:43.680Z,101168.80
2018-01-27T23:18:10.282Z,101176.17
2018-01-27T23:20:36.600Z,101167.52
2018-01-27T23:23:03.748Z,101173.27
2018-01-27T23:25:30.116Z,101170.56
2018-01-27T23:27:56.412Z,101161.81
2018-01-27T23:30:23.560Z,101152.20
2018-01-27T23:32:50.623Z,101145.77
2018-01-27T23:35:16.916Z,101132.11
2018-01-27T23:37:43.159Z,101122.95
2018-01-27T23:40:09.453Z,101108.73
2018-01-27T23:42:35.741Z,101108.21
2018-01-27T23:45:02.777Z,101102.00
2018-01-27T23:47:29.747Z,101093.84
2018-01-27T23:49:56.033Z,101091.09
2018-01-27T23:52:22.293Z,101093.56
2018-01-27T23:54:49.293Z,101094.87
2018-01-27T23:57:15.550Z,101091.17
2018-01-27T23:59:41.868Z,101085.14
